sensor_id;sensor_type;location;lat;lon;timestamp;P1;durP1;ratioP1;P2;durP2;ratioP2
51475;SDS011;37554;50.362;7.568;2024-03-17T00:02:16;2.45;;;1.33;;
51475;SDS011;37554;50.362;7.568;2024-03-17T00:04:45;1.77;;;1.10;;
51475;SDS011;37554;50.362;7.568;2024-03-17T00:07:11;2.78;;;1.20;;
51475;SDS011;37554;50.362;7.568;2024-03-17T00:09:37;2.08;;;1.30;;
51475;SDS011;37554;50.362;7.568;2024-03-17T00:12:03;1.60;;;1.20;;
51475;SDS011;37554;50.362;7.568;2024-03-17T00:14:29;2.30;;;1.38;;
51475;SDS011;37554;50.362;7.568;2024-03-17T00:16:55;2.00;;;1.20;;
51475;SDS011;37554;50.362;7.568;2024-03-17T00:19:20;1.30;;;1.10;;
51475;SDS011;37554;50.362;7.568;2024-03-17T00:21:48;2.85;;;1.35;;
51475;SDS011;37554;50.362;7.568;2024-03-17T00:24:15;2.90;;;1.05;;
51475;SDS011;37554;50.362;7.568;2024-03-17T00:26:41;1.88;;;1.10;;
51475;SDS011;37554;50.362;7.568;2024-03-17T00:29:07;3.83;;;1.13;;
51475;SDS011;37554;50.362;7.568;2024-03-17T00:31:33;1.98;;;1.10;;
51475;SDS011;37554;50.362;7.568;2024-03-17T00:33:59;2.13;;;1.10;;
51475;SDS011;37554;50.362;7.568;2024-03-17T00:36:25;2.30;;;1.20;;
51475;SDS011;37554;50.362;7.568;2024-03-17T00:38:50;3.35;;;1.40;;
51475;SDS011;37554;50.362;7.568;2024-03-17T00:41:19;2.25;;;1.00;;
51475;SDS011;37554;50.362;7.568;2024-03-17T00:43:46;1.35;;;1.02;;
51475;SDS011;37554;50.362;7.568;2024-03-17T00:46:12;2.60;;;1.10;;
51475;SDS011;37554;50.362;7.568;2024-03-17T00:48:37;1.95;;;1.27;;
51475;SDS011;37554;50.362;7.568;2024-03-17T00:51:03;1.63;;;1.27;;
51475;SDS011;37554;50.362;7.568;2024-03-17T00:53:29;2.38;;;1.20;;
51475;SDS011;37554;50.362;7.568;2024-03-17T00:55:55;4.25;;;1.35;;
51475;SDS011;37554;50.362;7.568;2024-03-17T00:58:25;4.28;;;1.23;;
51475;SDS011;37554;50.362;7.568;2024-03-17T01:00:50;2.03;;;1.20;;
51475;SDS011;37554;50.362;7.568;2024-03-17T01:03:16;1.75;;;1.23;;
51475;SDS011;37554;50.362;7.568;2024-03-17T01:05:42;1.60;;;1.20;;
51475;SDS011;37554;50.362;7.568;2024-03-17T01:08:10;3.00;;;1.17;;
51475;SDS011;37554;50.362;7.568;2024-03-17T01:10:39;2.75;;;1.50;;
51475;SDS011;37554;50.362;7.568;2024-03-17T01:13:06;2.25;;;1.30;;
51475;SDS011;37554;50.362;7.568;2024-03-17T01:15:34;1.50;;;1.00;;
51475;SDS011;37554;50.362;7.568;2024-03-17T01:18:01;2.95;;;1.20;;
51475;SDS011;37554;50.362;7.568;2024-03-17T01:20:29;2.17;;;1.40;;
51475;SDS011;37554;50.362;7.568;2024-03-17T01:22:55;2.63;;;1.17;;
51475;SDS011;37554;50.362;7.568;2024-03-17T01:25:20;3.65;;;1.50;;
51475;SDS011;37554;50.362;7.568;2024-03-17T01:27:46;2.03;;;1.20;;
51475;SDS011;37554;50.362;7.568;2024-03-17T01:30:12;2.22;;;1.50;;
51475;SDS011;37554;50.362;7.568;2024-03-17T01:32:37;3.08;;;1.45;;
51475;SDS011;37554;50.362;7.568;2024-03-17T01:35:03;2.35;;;1.52;;
51475;SDS011;37554;50.362;7.568;2024-03-17T01:37:31;3.22;;;1.30;;
51475;SDS011;37554;50.362;7.568;2024-03-17T01:39:57;2.55;;;1.20;;
51475;SDS011;37554;50.362;7.568;2024-03-17T01:42:23;2.50;;;1.60;;
51475;SDS011;37554;50.362;7.568;2024-03-17T01:44:49;1.55;;;1.20;;
51475;SDS011;37554;50.362;7.568;2024-03-17T01:47:16;4.18;;;1.25;;
51475;SDS011;37554;50.362;7.568;2024-03-17T01:49:44;1.65;;;1.10;;
51475;SDS011;37554;50.362;7.568;2024-03-17T01:52:16;1.95;;;0.90;;
51475;SDS011;37554;50.362;7.568;2024-03-17T01:54:43;2.60;;;0.98;;
51475;SDS011;37554;50.362;7.568;2024-03-17T01:57:11;3.00;;;1.13;;
51475;SDS011;37554;50.362;7.568;2024-03-17T01:59:38;2.40;;;1.10;;
51475;SDS011;37554;50.362;7.568;2024-03-17T02:02:04;2.83;;;1.50;;
51475;SDS011;37554;50.362;7.568;2024-03-17T02:04:30;2.50;;;1.30;;
51475;SDS011;37554;50.362;7.568;2024-03-17T02:06:56;3.53;;;1.17;;
51475;SDS011;37554;50.362;7.568;2024-03-17T02:09:22;3.38;;;1.08;;
51475;SDS011;37554;50.362;7.568;2024-03-17T02:11:48;2.30;;;1.17;;
51475;SDS011;37554;50.362;7.568;2024-03-17T02:14:13;3.13;;;1.23;;
51475;SDS011;37554;50.362;7.568;2024-03-17T02:16:42;2.45;;;1.00;;
51475;SDS011;37554;50.362;7.568;2024-03-17T02:19:08;2.33;;;1.20;;
51475;SDS011;37554;50.362;7.568;2024-03-17T02:21:34;1.65;;;0.90;;
51475;SDS011;37554;50.362;7.568;2024-03-17T02:24:00;2.20;;;1.30;;
51475;SDS011;37554;50.362;7.568;2024-03-17T02:26:26;3.15;;;1.23;;
51475;SDS011;37554;50.362;7.568;2024-03-17T02:28:52;4.00;;;0.98;;
51475;SDS011;37554;50.362;7.568;2024-03-17T02:31:18;2.40;;;1.10;;
51475;SDS011;37554;50.362;7.568;2024-03-17T02:33:44;3.60;;;1.20;;
51475;SDS011;37554;50.362;7.568;2024-03-17T02:36:10;1.77;;;1.38;;
51475;SDS011;37554;50.362;7.568;2024-03-17T02:38:37;2.67;;;1.20;;
51475;SDS011;37554;50.362;7.568;2024-03-17T02:41:25;1.52;;;0.93;;
51475;SDS011;37554;50.362;7.568;2024-03-17T02:43:51;3.20;;;1.20;;
51475;SDS011;37554;50.362;7.568;2024-03-17T02:46:18;1.65;;;1.40;;
51475;SDS011;37554;50.362;7.568;2024-03-17T02:48:44;1.88;;;1.20;;
51475;SDS011;37554;50.362;7.568;2024-03-17T02:51:13;1.92;;;1.00;;
51475;SDS011;37554;50.362;7.568;2024-03-17T02:53:43;3.70;;;1.48;;
51475;SDS011;37554;50.362;7.568;2024-03-17T02:56:12;2.63;;;1.30;;
51475;SDS011;37554;50.362;7.568;2024-03-17T02:58:41;1.83;;;1.20;;
51475;SDS011;37554;50.362;7.568;2024-03-17T03:01:07;3.45;;;1.30;;
51475;SDS011;37554;50.362;7.568;2024-03-17T03:03:34;1.80;;;1.13;;
51475;SDS011;37554;50.362;7.568;2024-03-17T03:06:01;2.72;;;1.10;;
51475;SDS011;37554;50.362;7.568;2024-03-17T03:08:32;3.08;;;1.10;;
51475;SDS011;37554;50.362;7.568;2024-03-17T03:10:58;2.38;;;1.30;;
51475;SDS011;37554;50.362;7.568;2024-03-17T03:13:24;2.28;;;1.15;;
51475;SDS011;37554;50.362;7.568;2024-03-17T03:15:50;2.25;;;1.20;;
51475;SDS011;37554;50.362;7.568;2024-03-17T03:18:16;1.60;;;0.95;;
51475;SDS011;37554;50.362;7.568;2024-03-17T03:20:42;1.25;;;1.10;;
51475;SDS011;37554;50.362;7.568;2024-03-17T03:23:08;1.67;;;0.93;;
51475;SDS011;37554;50.362;7.568;2024-03-17T03:25:34;3.70;;;1.23;;
51475;SDS011;37554;50.362;7.568;2024-03-17T03:28:00;1.92;;;1.20;;
51475;SDS011;37554;50.362;7.568;2024-03-17T03:30:26;1.92;;;1.00;;
51475;SDS011;37554;50.362;7.568;2024-03-17T03:32:52;2.55;;;1.20;;
51475;SDS011;37554;50.362;7.568;2024-03-17T03:35:18;3.35;;;1.50;;
51475;SDS011;37554;50.362;7.568;2024-03-17T03:37:44;1.40;;;0.95;;
51475;SDS011;37554;50.362;7.568;2024-03-17T03:40:10;2.25;;;1.00;;
51475;SDS011;37554;50.362;7.568;2024-03-17T03:42:42;1.85;;;0.90;;
51475;SDS011;37554;50.362;7.568;2024-03-17T03:45:09;1.52;;;0.98;;
51475;SDS011;37554;50.362;7.568;2024-03-17T03:47:41;2.78;;;1.13;;
51475;SDS011;37554;50.362;7.568;2024-03-17T03:50:10;1.55;;;0.85;;
51475;SDS011;37554;50.362;7.568;2024-03-17T03:52:39;3.28;;;1.13;;
51475;SDS011;37554;50.362;7.568;2024-03-17T03:55:07;1.25;;;0.98;;
51475;SDS011;37554;50.362;7.568;2024-03-17T03:57:39;2.28;;;1.02;;
51475;SDS011;37554;50.362;7.568;2024-03-17T04:00:11;1.83;;;0.98;;
51475;SDS011;37554;50.362;7.568;2024-03-17T04:02:38;2.03;;;1.00;;
51475;SDS011;37554;50.362;7.568;2024-03-17T04:05:04;4.43;;;1.30;;
51475;SDS011;37554;50.362;7.568;2024-03-17T04:07:30;1.90;;;1.17;;
51475;SDS011;37554;50.362;7.568;2024-03-17T04:09:56;1.90;;;1.08;;
51475;SDS011;37554;50.362;7.568;2024-03-17T04:12:22;1.95;;;1.00;;
51475;SDS011;37554;50.362;7.568;2024-03-17T04:14:49;1.67;;;1.08;;
51475;SDS011;37554;50.362;7.568;2024-03-17T04:17:18;1.52;;;1.00;;
51475;SDS011;37554;50.362;7.568;2024-03-17T04:19:46;3.40;;;1.10;;
51475;SDS011;37554;50.362;7.568;2024-03-17T04:22:15;1.40;;;0.95;;
51475;SDS011;37554;50.362;7.568;2024-03-17T04:24:44;1.65;;;1.13;;
51475;SDS011;37554;50.362;7.568;2024-03-17T04:27:11;1.80;;;0.95;;
51475;SDS011;37554;50.362;7.568;2024-03-17T04:29:38;1.30;;;1.00;;
51475;SDS011;37554;50.362;7.568;2024-03-17T04:32:04;2.67;;;1.10;;
51475;SDS011;37554;50.362;7.568;2024-03-17T04:34:30;1.55;;;1.00;;
51475;SDS011;37554;50.362;7.568;2024-03-17T04:36:57;2.65;;;1.00;;
51475;SDS011;37554;50.362;7.568;2024-03-17T04:39:23;1.45;;;0.70;;
51475;SDS011;37554;50.362;7.568;2024-03-17T04:41:49;2.55;;;1.17;;
51475;SDS011;37554;50.362;7.568;2024-03-17T04:44:16;1.40;;;0.90;;
51475;SDS011;37554;50.362;7.568;2024-03-17T04:46:42;2.78;;;1.20;;
51475;SDS011;37554;50.362;7.568;2024-03-17T04:49:08;2.15;;;1.08;;
51475;SDS011;37554;50.362;7.568;2024-03-17T04:51:33;1.10;;;0.90;;
51475;SDS011;37554;50.362;7.568;2024-03-17T04:53:59;1.33;;;1.05;;
51475;SDS011;37554;50.362;7.568;2024-03-17T04:56:25;1.08;;;0.93;;
51475;SDS011;37554;50.362;7.568;2024-03-17T04:58:51;1.20;;;0.80;;
51475;SDS011;37554;50.362;7.568;2024-03-17T05:01:17;2.45;;;1.00;;
51475;SDS011;37554;50.362;7.568;2024-03-17T05:03:43;1.73;;;0.90;;
51475;SDS011;37554;50.362;7.568;2024-03-17T05:06:08;4.78;;;1.00;;
51475;SDS011;37554;50.362;7.568;2024-03-17T05:08:34;1.67;;;1.10;;
51475;SDS011;37554;50.362;7.568;2024-03-17T05:11:00;2.50;;;1.13;;
51475;SDS011;37554;50.362;7.568;2024-03-17T05:13:32;1.95;;;1.02;;
51475;SDS011;37554;50.362;7.568;2024-03-17T05:16:01;1.88;;;0.75;;
51475;SDS011;37554;50.362;7.568;2024-03-17T05:18:30;3.20;;;1.10;;
51475;SDS011;37554;50.362;7.568;2024-03-17T05:21:04;1.35;;;0.80;;
51475;SDS011;37554;50.362;7.568;2024-03-17T05:25:58;1.15;;;0.80;;
51475;SDS011;37554;50.362;7.568;2024-03-17T05:28:25;5.43;;;0.90;;
51475;SDS011;37554;50.362;7.568;2024-03-17T05:30:51;1.67;;;0.80;;
51475;SDS011;37554;50.362;7.568;2024-03-17T05:33:18;1.85;;;1.00;;
51475;SDS011;37554;50.362;7.568;2024-03-17T05:35:52;1.30;;;0.82;;
51475;SDS011;37554;50.362;7.568;2024-03-17T05:38:20;2.33;;;1.05;;
51475;SDS011;37554;50.362;7.568;2024-03-17T05:40:53;3.80;;;1.00;;
51475;SDS011;37554;50.362;7.568;2024-03-17T05:43:19;1.73;;;1.13;;
51475;SDS011;37554;50.362;7.568;2024-03-17T05:45:45;2.65;;;1.05;;
51475;SDS011;37554;50.362;7.568;2024-03-17T05:48:11;2.88;;;1.00;;
51475;SDS011;37554;50.362;7.568;2024-03-17T05:50:36;3.05;;;1.20;;
51475;SDS011;37554;50.362;7.568;2024-03-17T05:53:02;1.75;;;1.10;;
51475;SDS011;37554;50.362;7.568;2024-03-17T05:55:28;2.45;;;1.00;;
51475;SDS011;37554;50.362;7.568;2024-03-17T05:57:53;2.13;;;0.80;;
51475;SDS011;37554;50.362;7.568;2024-03-17T06:00:19;1.58;;;1.05;;
51475;SDS011;37554;50.362;7.568;2024-03-17T06:02:45;1.65;;;0.90;;
51475;SDS011;37554;50.362;7.568;2024-03-17T06:05:12;1.98;;;1.00;;
51475;SDS011;37554;50.362;7.568;2024-03-17T06:07:39;1.23;;;1.00;;
51475;SDS011;37554;50.362;7.568;2024-03-17T06:10:05;2.47;;;1.10;;
51475;SDS011;37554;50.362;7.568;2024-03-17T06:12:31;1.52;;;1.13;;
51475;SDS011;37554;50.362;7.568;2024-03-17T06:14:57;1.63;;;1.10;;
51475;SDS011;37554;50.362;7.568;2024-03-17T06:17:22;1.48;;;0.90;;
51475;SDS011;37554;50.362;7.568;2024-03-17T06:19:48;2.90;;;0.98;;
51475;SDS011;37554;50.362;7.568;2024-03-17T06:22:13;2.03;;;1.20;;
51475;SDS011;37554;50.362;7.568;2024-03-17T06:24:39;1.60;;;0.90;;
51475;SDS011;37554;50.362;7.568;2024-03-17T06:27:04;1.35;;;0.90;;
51475;SDS011;37554;50.362;7.568;2024-03-17T06:29:32;1.25;;;0.98;;
51475;SDS011;37554;50.362;7.568;2024-03-17T06:31:58;2.00;;;1.00;;
51475;SDS011;37554;50.362;7.568;2024-03-17T06:34:25;1.75;;;1.02;;
51475;SDS011;37554;50.362;7.568;2024-03-17T06:36:50;1.45;;;1.10;;
51475;SDS011;37554;50.362;7.568;2024-03-17T06:39:16;3.00;;;1.20;;
51475;SDS011;37554;50.362;7.568;2024-03-17T06:41:44;1.42;;;0.93;;
51475;SDS011;37554;50.362;7.568;2024-03-17T06:44:10;1.65;;;1.08;;
51475;SDS011;37554;50.362;7.568;2024-03-17T06:46:35;1.35;;;0.95;;
51475;SDS011;37554;50.362;7.568;2024-03-17T06:49:01;1.80;;;0.95;;
51475;SDS011;37554;50.362;7.568;2024-03-17T06:51:27;1.23;;;0.93;;
51475;SDS011;37554;50.362;7.568;2024-03-17T06:53:52;1.65;;;0.90;;
51475;SDS011;37554;50.362;7.568;2024-03-17T06:56:18;2.80;;;1.05;;
51475;SDS011;37554;50.362;7.568;2024-03-17T06:58:43;1.20;;;0.90;;
51475;SDS011;37554;50.362;7.568;2024-03-17T07:01:09;2.38;;;1.10;;
51475;SDS011;37554;50.362;7.568;2024-03-17T07:03:34;1.45;;;0.88;;
51475;SDS011;37554;50.362;7.568;2024-03-17T07:06:00;1.20;;;0.93;;
51475;SDS011;37554;50.362;7.568;2024-03-17T07:08:32;1.25;;;0.82;;
51475;SDS011;37554;50.362;7.568;2024-03-17T07:11:05;1.38;;;1.00;;
51475;SDS011;37554;50.362;7.568;2024-03-17T07:13:36;1.60;;;0.98;;
51475;SDS011;37554;50.362;7.568;2024-03-17T07:16:04;1.77;;;1.13;;
51475;SDS011;37554;50.362;7.568;2024-03-17T07:18:35;1.48;;;0.82;;
51475;SDS011;37554;50.362;7.568;2024-03-17T07:21:02;2.15;;;1.23;;
51475;SDS011;37554;50.362;7.568;2024-03-17T07:23:32;1.75;;;0.98;;
51475;SDS011;37554;50.362;7.568;2024-03-17T07:25:59;1.83;;;0.80;;
51475;SDS011;37554;50.362;7.568;2024-03-17T07:28:25;1.70;;;0.93;;
51475;SDS011;37554;50.362;7.568;2024-03-17T07:30:52;1.52;;;0.90;;
51475;SDS011;37554;50.362;7.568;2024-03-17T07:33:22;1.83;;;1.65;;
51475;SDS011;37554;50.362;7.568;2024-03-17T07:35:51;3.13;;;2.28;;
51475;SDS011;37554;50.362;7.568;2024-03-17T07:38:20;9.07;;;2.50;;
51475;SDS011;37554;50.362;7.568;2024-03-17T07:40:54;2.08;;;1.88;;
51475;SDS011;37554;50.362;7.568;2024-03-17T07:43:24;2.50;;;1.80;;
51475;SDS011;37554;50.362;7.568;2024-03-17T07:45:57;2.50;;;1.52;;
51475;SDS011;37554;50.362;7.568;2024-03-17T07:48:23;1.00;;;1.00;;
51475;SDS011;37554;50.362;7.568;2024-03-17T07:53:22;1.92;;;0.90;;
51475;SDS011;37554;50.362;7.568;2024-03-17T07:55:56;1.98;;;1.05;;
51475;SDS011;37554;50.362;7.568;2024-03-17T07:58:23;2.75;;;1.00;;
51475;SDS011;37554;50.362;7.568;2024-03-17T08:00:50;2.38;;;0.95;;
51475;SDS011;37554;50.362;7.568;2024-03-17T08:03:20;2.38;;;0.90;;
51475;SDS011;37554;50.362;7.568;2024-03-17T08:05:49;1.30;;;1.08;;
51475;SDS011;37554;50.362;7.568;2024-03-17T08:08:15;1.58;;;1.00;;
51475;SDS011;37554;50.362;7.568;2024-03-17T08:10:41;3.42;;;0.80;;
51475;SDS011;37554;50.362;7.568;2024-03-17T08:13:07;1.10;;;0.80;;
51475;SDS011;37554;50.362;7.568;2024-03-17T08:15:34;0.82;;;0.65;;
51475;SDS011;37554;50.362;7.568;2024-03-17T08:18:00;1.95;;;0.77;;
51475;SDS011;37554;50.362;7.568;2024-03-17T08:20:25;1.45;;;0.75;;
51475;SDS011;37554;50.362;7.568;2024-03-17T08:22:51;2.45;;;0.95;;
51475;SDS011;37554;50.362;7.568;2024-03-17T08:25:17;0.77;;;0.77;;
51475;SDS011;37554;50.362;7.568;2024-03-17T08:27:42;1.17;;;0.80;;
51475;SDS011;37554;50.362;7.568;2024-03-17T08:30:08;0.57;;;0.57;;
51475;SDS011;37554;50.362;7.568;2024-03-17T08:32:38;0.85;;;0.80;;
51475;SDS011;37554;50.362;7.568;2024-03-17T08:35:04;1.38;;;0.70;;
51475;SDS011;37554;50.362;7.568;2024-03-17T08:37:31;2.13;;;0.80;;
51475;SDS011;37554;50.362;7.568;2024-03-17T08:39:56;1.60;;;0.85;;
51475;SDS011;37554;50.362;7.568;2024-03-17T08:42:22;1.17;;;1.00;;
51475;SDS011;37554;50.362;7.568;2024-03-17T08:44:48;1.15;;;0.82;;
51475;SDS011;37554;50.362;7.568;2024-03-17T08:47:13;0.93;;;0.55;;
51475;SDS011;37554;50.362;7.568;2024-03-17T08:49:39;1.23;;;0.70;;
51475;SDS011;37554;50.362;7.568;2024-03-17T08:52:05;1.00;;;0.73;;
51475;SDS011;37554;50.362;7.568;2024-03-17T08:54:30;1.10;;;0.80;;
51475;SDS011;37554;50.362;7.568;2024-03-17T08:56:56;0.80;;;0.70;;
51475;SDS011;37554;50.362;7.568;2024-03-17T08:59:21;1.17;;;0.70;;
51475;SDS011;37554;50.362;7.568;2024-03-17T09:01:47;1.55;;;0.60;;
51475;SDS011;37554;50.362;7.568;2024-03-17T09:04:12;0.70;;;0.70;;
51475;SDS011;37554;50.362;7.568;2024-03-17T09:06:38;2.58;;;1.00;;
51475;SDS011;37554;50.362;7.568;2024-03-17T09:09:03;1.75;;;0.70;;
51475;SDS011;37554;50.362;7.568;2024-03-17T09:11:31;1.40;;;0.90;;
51475;SDS011;37554;50.362;7.568;2024-03-17T09:13:56;1.80;;;0.80;;
51475;SDS011;37554;50.362;7.568;2024-03-17T09:16:23;0.60;;;0.60;;
51475;SDS011;37554;50.362;7.568;2024-03-17T09:18:50;1.85;;;0.90;;
51475;SDS011;37554;50.362;7.568;2024-03-17T09:21:16;1.50;;;1.05;;
51475;SDS011;37554;50.362;7.568;2024-03-17T09:23:42;1.08;;;0.82;;
51475;SDS011;37554;50.362;7.568;2024-03-17T09:26:09;1.48;;;0.80;;
51475;SDS011;37554;50.362;7.568;2024-03-17T09:28:38;1.00;;;0.70;;
51475;SDS011;37554;50.362;7.568;2024-03-17T09:31:04;2.17;;;1.17;;
51475;SDS011;37554;50.362;7.568;2024-03-17T09:33:32;1.20;;;0.90;;
51475;SDS011;37554;50.362;7.568;2024-03-17T09:35:59;1.65;;;0.90;;
51475;SDS011;37554;50.362;7.568;2024-03-17T09:38:26;3.72;;;0.93;;
51475;SDS011;37554;50.362;7.568;2024-03-17T09:40:52;0.70;;;0.60;;
51475;SDS011;37554;50.362;7.568;2024-03-17T09:43:20;1.13;;;0.80;;
51475;SDS011;37554;50.362;7.568;2024-03-17T09:45:47;1.23;;;0.93;;
51475;SDS011;37554;50.362;7.568;2024-03-17T09:48:14;1.42;;;0.68;;
51475;SDS011;37554;50.362;7.568;2024-03-17T09:50:43;1.00;;;0.85;;
51475;SDS011;37554;50.362;7.568;2024-03-17T09:53:16;2.08;;;0.75;;
51475;SDS011;37554;50.362;7.568;2024-03-17T09:55:43;1.02;;;0.65;;
51475;SDS011;37554;50.362;7.568;2024-03-17T09:58:14;1.13;;;0.77;;
51475;SDS011;37554;50.362;7.568;2024-03-17T10:00:42;1.60;;;0.85;;
51475;SDS011;37554;50.362;7.568;2024-03-17T10:03:08;1.40;;;0.90;;
51475;SDS011;37554;50.362;7.568;2024-03-17T10:05:34;1.25;;;0.70;;
51475;SDS011;37554;50.362;7.568;2024-03-17T10:08:00;1.52;;;1.02;;
51475;SDS011;37554;50.362;7.568;2024-03-17T10:10:27;2.30;;;0.73;;
51475;SDS011;37554;50.362;7.568;2024-03-17T10:12:53;2.65;;;1.00;;
51475;SDS011;37554;50.362;7.568;2024-03-17T10:15:18;1.27;;;0.70;;
51475;SDS011;37554;50.362;7.568;2024-03-17T10:17:45;1.13;;;0.85;;
51475;SDS011;37554;50.362;7.568;2024-03-17T10:20:15;0.70;;;0.65;;
51475;SDS011;37554;50.362;7.568;2024-03-17T10:25:25;0.82;;;0.73;;
51475;SDS011;37554;50.362;7.568;2024-03-17T10:27:52;2.85;;;0.90;;
51475;SDS011;37554;50.362;7.568;2024-03-17T10:30:19;2.25;;;1.05;;
51475;SDS011;37554;50.362;7.568;2024-03-17T10:32:48;1.65;;;0.90;;
51475;SDS011;37554;50.362;7.568;2024-03-17T10:35:27;1.75;;;0.80;;
51475;SDS011;37554;50.362;7.568;2024-03-17T10:37:57;2.85;;;1.05;;
51475;SDS011;37554;50.362;7.568;2024-03-17T10:40:24;1.20;;;1.08;;
51475;SDS011;37554;50.362;7.568;2024-03-17T10:42:50;1.95;;;1.20;;
51475;SDS011;37554;50.362;7.568;2024-03-17T10:45:17;2.38;;;1.23;;
51475;SDS011;37554;50.362;7.568;2024-03-17T10:47:43;2.00;;;1.40;;
51475;SDS011;37554;50.362;7.568;2024-03-17T10:50:19;3.10;;;1.15;;
51475;SDS011;37554;50.362;7.568;2024-03-17T10:52:51;2.08;;;0.93;;
51475;SDS011;37554;50.362;7.568;2024-03-17T10:55:21;1.98;;;1.08;;
51475;SDS011;37554;50.362;7.568;2024-03-17T10:57:48;1.55;;;0.98;;
51475;SDS011;37554;50.362;7.568;2024-03-17T11:00:18;2.33;;;1.25;;
51475;SDS011;37554;50.362;7.568;2024-03-17T11:02:47;1.38;;;1.00;;
51475;SDS011;37554;50.362;7.568;2024-03-17T11:05:25;1.15;;;0.70;;
51475;SDS011;37554;50.362;7.568;2024-03-17T11:07:55;1.20;;;0.70;;
51475;SDS011;37554;50.362;7.568;2024-03-17T11:10:30;1.33;;;0.80;;
51475;SDS011;37554;50.362;7.568;2024-03-17T11:12:59;1.00;;;0.63;;
51475;SDS011;37554;50.362;7.568;2024-03-17T11:17:55;1.50;;;0.82;;
51475;SDS011;37554;50.362;7.568;2024-03-17T11:20:32;1.50;;;0.90;;
51475;SDS011;37554;50.362;7.568;2024-03-17T11:22:58;1.42;;;0.77;;
51475;SDS011;37554;50.362;7.568;2024-03-17T11:30:41;2.15;;;1.00;;
51475;SDS011;37554;50.362;7.568;2024-03-17T11:38:54;2.28;;;0.73;;
51475;SDS011;37554;50.362;7.568;2024-03-17T11:41:30;1.27;;;0.70;;
51475;SDS011;37554;50.362;7.568;2024-03-17T11:44:23;0.68;;;0.65;;
51475;SDS011;37554;50.362;7.568;2024-03-17T11:46:43;1.10;;;0.50;;
51475;SDS011;37554;50.362;7.568;2024-03-17T11:52:11;1.45;;;0.70;;
51475;SDS011;37554;50.362;7.568;2024-03-17T11:54:42;0.95;;;0.70;;
51475;SDS011;37554;50.362;7.568;2024-03-17T11:57:09;1.35;;;0.63;;
51475;SDS011;37554;50.362;7.568;2024-03-17T11:59:36;2.08;;;0.70;;
51475;SDS011;37554;50.362;7.568;2024-03-17T12:02:09;1.35;;;0.55;;
51475;SDS011;37554;50.362;7.568;2024-03-17T12:04:56;1.52;;;0.70;;
51475;SDS011;37554;50.362;7.568;2024-03-17T12:07:23;1.08;;;0.60;;
51475;SDS011;37554;50.362;7.568;2024-03-17T12:09:49;1.63;;;0.70;;
51475;SDS011;37554;50.362;7.568;2024-03-17T12:12:25;1.70;;;0.80;;
51475;SDS011;37554;50.362;7.568;2024-03-17T12:15:01;1.27;;;0.65;;
51475;SDS011;37554;50.362;7.568;2024-03-17T12:17:28;1.77;;;0.85;;
51475;SDS011;37554;50.362;7.568;2024-03-17T12:19:54;2.38;;;1.05;;
51475;SDS011;37554;50.362;7.568;2024-03-17T12:22:25;2.10;;;1.10;;
51475;SDS011;37554;50.362;7.568;2024-03-17T12:24:58;1.25;;;0.70;;
51475;SDS011;37554;50.362;7.568;2024-03-17T12:27:25;1.38;;;0.80;;
51475;SDS011;37554;50.362;7.568;2024-03-17T12:29:51;3.00;;;0.80;;
51475;SDS011;37554;50.362;7.568;2024-03-17T12:32:18;1.63;;;0.73;;
51475;SDS011;37554;50.362;7.568;2024-03-17T12:34:46;1.05;;;0.70;;
51475;SDS011;37554;50.362;7.568;2024-03-17T12:37:16;1.27;;;0.80;;
51475;SDS011;37554;50.362;7.568;2024-03-17T12:39:43;1.35;;;0.95;;
51475;SDS011;37554;50.362;7.568;2024-03-17T12:42:10;1.45;;;0.80;;
51475;SDS011;37554;50.362;7.568;2024-03-17T12:44:48;1.38;;;0.70;;
51475;SDS011;37554;50.362;7.568;2024-03-17T12:47:15;1.20;;;0.55;;
51475;SDS011;37554;50.362;7.568;2024-03-17T12:49:46;1.13;;;0.73;;
51475;SDS011;37554;50.362;7.568;2024-03-17T12:52:32;0.63;;;0.60;;
51475;SDS011;37554;50.362;7.568;2024-03-17T12:55:07;0.95;;;0.45;;
51475;SDS011;37554;50.362;7.568;2024-03-17T13:00:46;2.72;;;1.10;;
51475;SDS011;37554;50.362;7.568;2024-03-17T13:03:29;1.48;;;0.70;;
51475;SDS011;37554;50.362;7.568;2024-03-17T13:05:56;1.88;;;0.70;;
51475;SDS011;37554;50.362;7.568;2024-03-17T13:08:22;2.55;;;0.90;;
51475;SDS011;37554;50.362;7.568;2024-03-17T13:10:48;1.45;;;1.00;;
51475;SDS011;37554;50.362;7.568;2024-03-17T13:13:13;1.33;;;0.93;;
51475;SDS011;37554;50.362;7.568;2024-03-17T13:15:40;2.83;;;1.17;;
51475;SDS011;37554;50.362;7.568;2024-03-17T13:18:07;2.22;;;1.08;;
51475;SDS011;37554;50.362;7.568;2024-03-17T13:20:33;1.48;;;0.88;;
51475;SDS011;37554;50.362;7.568;2024-03-17T13:22:59;2.38;;;1.20;;
51475;SDS011;37554;50.362;7.568;2024-03-17T13:25:26;3.03;;;1.23;;
51475;SDS011;37554;50.362;7.568;2024-03-17T13:27:59;1.77;;;0.80;;
51475;SDS011;37554;50.362;7.568;2024-03-17T13:30:26;1.52;;;0.75;;
51475;SDS011;37554;50.362;7.568;2024-03-17T13:32:54;1.35;;;0.75;;
51475;SDS011;37554;50.362;7.568;2024-03-17T13:35:23;2.28;;;1.20;;
51475;SDS011;37554;50.362;7.568;2024-03-17T13:37:51;2.08;;;1.05;;
51475;SDS011;37554;50.362;7.568;2024-03-17T13:40:18;2.88;;;1.23;;
51475;SDS011;37554;50.362;7.568;2024-03-17T13:42:45;0.85;;;0.82;;
51475;SDS011;37554;50.362;7.568;2024-03-17T13:45:12;1.35;;;0.85;;
51475;SDS011;37554;50.362;7.568;2024-03-17T13:47:41;1.20;;;0.68;;
51475;SDS011;37554;50.362;7.568;2024-03-17T13:52:37;1.35;;;0.77;;
51475;SDS011;37554;50.362;7.568;2024-03-17T13:55:06;1.02;;;0.80;;
51475;SDS011;37554;50.362;7.568;2024-03-17T13:57:44;1.45;;;0.80;;
51475;SDS011;37554;50.362;7.568;2024-03-17T14:00:11;1.77;;;0.98;;
51475;SDS011;37554;50.362;7.568;2024-03-17T14:02:43;1.60;;;0.70;;
51475;SDS011;37554;50.362;7.568;2024-03-17T14:05:16;1.25;;;0.70;;
51475;SDS011;37554;50.362;7.568;2024-03-17T14:07:43;1.88;;;0.70;;
51475;SDS011;37554;50.362;7.568;2024-03-17T14:10:10;1.20;;;0.75;;
51475;SDS011;37554;50.362;7.568;2024-03-17T14:12:37;1.63;;;0.90;;
51475;SDS011;37554;50.362;7.568;2024-03-17T14:15:04;1.60;;;0.82;;
51475;SDS011;37554;50.362;7.568;2024-03-17T14:17:31;1.58;;;0.80;;
51475;SDS011;37554;50.362;7.568;2024-03-17T14:19:57;1.00;;;0.60;;
51475;SDS011;37554;50.362;7.568;2024-03-17T14:22:23;1.63;;;0.88;;
51475;SDS011;37554;50.362;7.568;2024-03-17T14:24:49;1.75;;;0.80;;
51475;SDS011;37554;50.362;7.568;2024-03-17T14:27:15;3.33;;;1.77;;
51475;SDS011;37554;50.362;7.568;2024-03-17T14:29:41;2.55;;;1.70;;
51475;SDS011;37554;50.362;7.568;2024-03-17T14:32:07;2.47;;;1.60;;
51475;SDS011;37554;50.362;7.568;2024-03-17T14:34:32;3.72;;;1.60;;
51475;SDS011;37554;50.362;7.568;2024-03-17T14:37:01;3.13;;;1.30;;
51475;SDS011;37554;50.362;7.568;2024-03-17T14:39:27;2.70;;;1.45;;
51475;SDS011;37554;50.362;7.568;2024-03-17T14:41:54;1.90;;;1.02;;
51475;SDS011;37554;50.362;7.568;2024-03-17T14:44:20;2.05;;;0.82;;
51475;SDS011;37554;50.362;7.568;2024-03-17T14:46:46;1.73;;;0.70;;
51475;SDS011;37554;50.362;7.568;2024-03-17T14:49:12;1.65;;;0.75;;
51475;SDS011;37554;50.362;7.568;2024-03-17T14:51:38;1.63;;;0.55;;
51475;SDS011;37554;50.362;7.568;2024-03-17T14:54:03;1.45;;;0.40;;
51475;SDS011;37554;50.362;7.568;2024-03-17T14:56:30;1.08;;;0.60;;
51475;SDS011;37554;50.362;7.568;2024-03-17T14:58:56;0.82;;;0.50;;
51475;SDS011;37554;50.362;7.568;2024-03-17T15:01:22;0.85;;;0.50;;
51475;SDS011;37554;50.362;7.568;2024-03-17T15:03:47;1.90;;;0.50;;
51475;SDS011;37554;50.362;7.568;2024-03-17T15:06:13;1.05;;;0.60;;
51475;SDS011;37554;50.362;7.568;2024-03-17T15:08:40;2.30;;;0.60;;
51475;SDS011;37554;50.362;7.568;2024-03-17T15:11:06;1.83;;;0.90;;
51475;SDS011;37554;50.362;7.568;2024-03-17T15:13:34;1.67;;;0.80;;
51475;SDS011;37554;50.362;7.568;2024-03-17T15:16:00;3.00;;;0.80;;
51475;SDS011;37554;50.362;7.568;2024-03-17T15:18:29;2.60;;;1.30;;
51475;SDS011;37554;50.362;7.568;2024-03-17T15:20:55;1.95;;;0.70;;